Time;durP1;ratioP1;P1;durP2;ratioP2;P2;SDS_P1;SDS_P2;PMS_P1;PMS_P2;Temp;Humidity;BMP_temperature;BMP_pressure;BME280_temperature;BME280_humidity;BME280_pressure;Samples;Min_cycle;Max_cycle;Signal;HPM_P1;HPM_P2
2023/03/02 00:01:30;;;;;;;50.10;23.80;;;3.30;99.90;;;;;;5102099;27;20039;-47
2023/03/02 00:03:58;;;;;;;48.75;24.52;;;3.30;99.90;;;;;;5130056;27;20081;-48
2023/03/02 00:06:29;;;;;;;51.47;24.88;;;3.30;99.90;;;;;;5129758;27;20126;-47
2023/03/02 00:08:59;;;;;;;51.70;25.58;;;3.50;99.90;;;;;;5097792;27;20502;-49
2023/03/02 00:11:26;;;;;;;48.55;23.65;;;3.20;99.90;;;;;;5131587;27;20066;-49
2023/03/02 00:13:52;;;;;;;51.45;23.73;;;3.30;99.90;;;;;;5130772;27;20558;-47
2023/03/02 00:16:18;;;;;;;49.60;23.02;;;3.20;99.90;;;;;;5129774;27;20031;-48
2023/03/02 00:18:44;;;;;;;46.53;23.27;;;3.20;99.90;;;;;;5128987;27;20043;-49
2023/03/02 00:21:10;;;;;;;46.90;23.15;;;3.20;99.90;;;;;;5119036;27;20683;-49
2023/03/02 00:23:37;;;;;;;48.28;23.80;;;3.50;99.90;;;;;;5128486;27;20042;-48
2023/03/02 00:26:04;;;;;;;45.40;22.63;;;3.10;99.90;;;;;;5108422;28;20042;-50
2023/03/02 00:28:29;;;;;;;44.17;21.38;;;3.10;99.90;;;;;;5129948;27;20035;-49
2023/03/02 00:30:55;;;;;;;44.90;21.98;;;3.10;99.90;;;;;;5129057;27;20436;-48
2023/03/02 00:33:21;;;;;;;48.22;22.92;;;3.10;99.90;;;;;;5130896;27;20039;-46
2023/03/02 00:35:47;;;;;;;48.65;22.98;;;3.10;99.90;;;;;;5131406;27;20077;-47
2023/03/02 00:38:12;;;;;;;39.55;20.58;;;3.10;99.90;;;;;;5112158;27;20119;-49
2023/03/02 00:40:44;;;;;;;43.08;20.55;;;3.10;99.90;;;;;;5097182;28;20067;-46
2023/03/02 00:43:10;;;;;;;38.88;19.65;;;3.20;99.90;;;;;;5099580;28;20039;-49
2023/03/02 00:45:35;;;;;;;39.58;19.98;;;3.10;99.90;;;;;;5122294;28;20497;-47
2023/03/02 00:48:01;;;;;;;41.67;20.48;;;3.10;99.90;;;;;;5130159;28;20083;-50
2023/03/02 00:50:27;;;;;;;41.47;21.13;;;3.50;99.90;;;;;;5128694;28;20399;-49
2023/03/02 00:52:52;;;;;;;39.17;20.17;;;3.10;99.90;;;;;;5100241;28;20044;-48
2023/03/02 00:55:20;;;;;;;42.35;20.98;;;3.00;99.90;;;;;;5120932;28;20058;-47
2023/03/02 00:57:53;;;;;;;40.85;20.60;;;3.00;99.90;;;;;;5100247;28;20118;-49
2023/03/02 01:00:21;;;;;;;39.10;19.85;;;3.00;99.90;;;;;;5080497;28;20070;-46
2023/03/02 01:02:47;;;;;;;42.28;19.65;;;2.90;99.90;;;;;;5110712;28;20142;-46
2023/03/02 01:05:13;;;;;;;38.40;20.27;;;2.90;99.90;;;;;;5128756;28;20413;-48
2023/03/02 01:07:39;;;;;;;40.17;19.52;;;3.30;99.90;;;;;;5129376;28;20039;-49
2023/03/02 01:10:05;;;;;;;40.40;19.42;;;2.90;99.90;;;;;;5081015;28;20035;-49
2023/03/02 01:12:32;;;;;;;35.10;18.58;;;2.90;99.90;;;;;;5129586;28;20513;-50
2023/03/02 01:14:58;;;;;;;40.35;19.50;;;2.80;99.90;;;;;;5128763;28;20031;-50
2023/03/02 01:17:24;;;;;;;39.58;19.33;;;3.10;99.90;;;;;;5081292;28;20115;-48
2023/03/02 01:19:50;;;;;;;39.08;19.63;;;2.80;99.90;;;;;;5091222;28;20032;-49
2023/03/02 01:22:16;;;;;;;36.33;18.85;;;2.80;99.90;;;;;;5110664;28;20542;-51
2023/03/02 01:24:42;;;;;;;37.70;18.60;;;2.80;99.90;;;;;;5097408;28;20031;-49
2023/03/02 01:27:08;;;;;;;41.38;21.02;;;2.80;99.90;;;;;;5130210;28;20031;-51
2023/03/02 01:29:33;;;;;;;40.08;20.45;;;2.80;99.90;;;;;;5128723;28;20509;-50
2023/03/02 01:31:59;;;;;;;39.55;19.60;;;2.80;99.90;;;;;;5129145;28;20034;-47
2023/03/02 01:34:25;;;;;;;38.90;19.52;;;2.80;99.90;;;;;;5091826;28;20490;-48
2023/03/02 01:36:50;;;;;;;38.88;19.67;;;2.80;99.90;;;;;;5110369;28;20047;-49
2023/03/02 01:39:16;;;;;;;36.63;19.17;;;2.70;99.90;;;;;;5096585;28;20039;-47
2023/03/02 01:41:45;;;;;;;38.70;18.42;;;2.70;99.90;;;;;;5098558;28;20071;-48
2023/03/02 01:44:32;;;;;;;40.10;20.25;;;2.70;99.90;;;;;;5124841;28;20496;-51
2023/03/02 01:46:58;;;;;;;42.75;20.25;;;2.70;99.90;;;;;;5117931;28;20088;-50
2023/03/02 01:49:24;;;;;;;42.28;20.58;;;2.70;99.90;;;;;;5104195;28;20047;-50
2023/03/02 01:51:51;;;;;;;42.60;19.90;;;2.60;99.90;;;;;;5121463;27;20073;-48
2023/03/02 01:54:21;;;;;;;41.10;20.30;;;2.60;99.90;;;;;;5133453;27;20167;-50
2023/03/02 01:56:51;;;;;;;42.45;21.65;;;2.60;99.90;;;;;;5131640;27;20035;-49
2023/03/02 01:59:21;;;;;;;41.92;21.15;;;2.60;99.90;;;;;;5105278;27;20055;-49
2023/03/02 02:01:51;;;;;;;46.22;20.20;;;2.60;99.90;;;;;;5110710;27;20031;-49
2023/03/02 02:04:17;;;;;;;42.22;19.67;;;2.60;99.90;;;;;;5132090;27;20050;-51
2023/03/02 02:06:51;;;;;;;43.95;21.30;;;2.60;99.90;;;;;;5133658;27;20051;-50
2023/03/02 02:09:19;;;;;;;45.38;21.10;;;2.60;99.90;;;;;;5131182;27;20039;-47
2023/03/02 02:11:45;;;;;;;44.58;20.63;;;2.60;99.90;;;;;;5133674;27;20123;-48
2023/03/02 02:14:11;;;;;;;45.10;21.33;;;2.60;99.90;;;;;;5133751;27;20050;-47
2023/03/02 02:16:37;;;;;;;41.63;19.95;;;2.50;99.90;;;;;;5133413;27;20042;-50
2023/03/02 02:19:29;;;;;;;41.03;19.83;;;3.00;99.90;;;;;;5094878;28;20047;-48
2023/03/02 02:21:55;;;;;;;41.92;20.33;;;2.50;99.90;;;;;;5062227;27;20044;-49
2023/03/02 02:24:41;;;;;;;45.90;19.55;;;2.40;99.90;;;;;;5123863;27;20157;-50
2023/03/02 02:27:07;;;;;;;44.40;19.95;;;2.50;99.90;;;;;;5128198;27;20187;-49
2023/03/02 02:29:37;;;;;;;40.90;19.48;;;2.40;99.90;;;;;;5133563;27;20510;-49
2023/03/02 02:32:11;;;;;;;45.28;21.13;;;2.40;99.90;;;;;;5133289;27;20351;-49
2023/03/02 02:34:58;;;;;;;48.00;21.80;;;2.50;99.90;;;;;;5132304;27;20121;-49
2023/03/02 02:37:46;;;;;;;49.88;22.20;;;2.40;99.90;;;;;;5131640;27;20056;-47
2023/03/02 02:40:16;;;;;;;47.63;21.25;;;2.30;99.90;;;;;;5130861;27;20114;-46
2023/03/02 02:42:48;;;;;;;49.55;21.90;;;2.30;99.90;;;;;;5131659;27;20038;-49
2023/03/02 02:45:24;;;;;;;46.90;22.13;;;2.30;99.90;;;;;;5131176;27;20043;-49
2023/03/02 02:47:51;;;;;;;50.40;21.95;;;2.20;99.90;;;;;;5132037;27;20039;-48
2023/03/02 02:50:23;;;;;;;55.45;23.63;;;2.30;99.90;;;;;;5130683;27;20155;-49
2023/03/02 02:53:02;;;;;;;53.72;23.70;;;2.20;99.90;;;;;;5107820;27;20028;-50
2023/03/02 02:55:29;;;;;;;51.47;22.27;;;2.20;99.90;;;;;;5128508;27;20035;-48
2023/03/02 02:57:58;;;;;;;54.53;25.23;;;2.30;99.90;;;;;;5130529;27;20416;-49
2023/03/02 03:00:24;;;;;;;50.33;22.67;;;2.30;99.90;;;;;;5129986;27;20428;-50
2023/03/02 03:02:57;;;;;;;53.83;23.88;;;2.30;99.90;;;;;;5130110;27;20061;-48
2023/03/02 03:05:22;;;;;;;56.22;22.95;;;2.20;99.90;;;;;;5131920;27;20057;-48
2023/03/02 03:07:48;;;;;;;52.50;23.75;;;2.20;99.90;;;;;;5129709;27;20475;-49
2023/03/02 03:10:30;;;;;;;51.65;23.10;;;2.20;99.90;;;;;;5131726;27;20049;-49
2023/03/02 03:12:55;;;;;;;54.92;23.83;;;2.20;99.90;;;;;;5130319;27;20050;-50
2023/03/02 03:15:22;;;;;;;55.47;24.83;;;2.30;99.90;;;;;;5132308;27;20035;-48
2023/03/02 03:17:57;;;;;;;51.63;23.40;;;2.30;99.90;;;;;;5131397;27;20482;-49
2023/03/02 03:20:25;;;;;;;53.50;24.63;;;2.30;99.90;;;;;;5131347;27;20047;-50
2023/03/02 03:22:53;;;;;;;60.10;25.48;;;2.30;99.90;;;;;;5131174;27;20035;-50
2023/03/02 03:25:20;;;;;;;55.85;24.90;;;2.30;99.90;;;;;;5130185;27;20126;-46
2023/03/02 03:27:46;;;;;;;63.30;25.42;;;2.30;99.90;;;;;;5131377;27;20039;-49
2023/03/02 03:30:14;;;;;;;53.28;24.67;;;2.50;99.90;;;;;;5121258;27;20500;-47
2023/03/02 03:32:40;;;;;;;52.30;23.40;;;2.20;99.90;;;;;;5131034;27;20122;-49
2023/03/02 03:35:09;;;;;;;48.97;22.80;;;2.30;99.90;;;;;;5097108;28;20127;-50
2023/03/02 03:37:36;;;;;;;53.42;22.73;;;2.30;99.90;;;;;;5107260;27;20379;-49
2023/03/02 03:40:04;;;;;;;50.90;21.77;;;2.10;99.90;;;;;;5098386;27;20043;-49
2023/03/02 03:42:30;;;;;;;51.65;22.25;;;2.10;99.90;;;;;;5110700;27;20058;-49
2023/03/02 03:44:56;;;;;;;47.78;21.48;;;2.10;99.90;;;;;;5129029;27;20043;-51
2023/03/02 03:47:22;;;;;;;51.15;22.33;;;2.10;99.90;;;;;;5101891;28;20135;-49
2023/03/02 03:49:48;;;;;;;47.15;21.58;;;2.10;99.90;;;;;;5122246;27;20050;-47
2023/03/02 03:52:13;;;;;;;47.47;21.30;;;2.10;99.90;;;;;;5119596;27;20035;-51
2023/03/02 03:54:39;;;;;;;54.45;23.00;;;2.10;99.90;;;;;;5123270;27;20031;-49
2023/03/02 03:57:05;;;;;;;51.03;22.70;;;2.60;99.90;;;;;;5129490;27;20074;-50
2023/03/02 03:59:32;;;;;;;50.63;22.45;;;2.10;99.90;;;;;;5129430;27;20035;-50
2023/03/02 04:02:00;;;;;;;46.67;20.85;;;2.10;99.90;;;;;;5131756;27;20424;-49
2023/03/02 04:04:32;;;;;;;49.70;21.80;;;2.10;99.90;;;;;;5113070;27;20050;-49
2023/03/02 04:06:58;;;;;;;47.13;20.90;;;2.00;99.90;;;;;;5130642;27;20410;-51
2023/03/02 04:09:25;;;;;;;54.85;22.83;;;2.00;99.90;;;;;;5130038;27;20413;-50
2023/03/02 04:11:53;;;;;;;50.95;22.10;;;2.00;99.90;;;;;;5130898;27;20039;-49
2023/03/02 04:14:20;;;;;;;54.80;23.38;;;1.90;99.90;;;;;;5097402;27;20171;-47
2023/03/02 04:16:47;;;;;;;50.58;21.25;;;2.00;99.90;;;;;;5131395;27;20035;-48
2023/03/02 04:19:13;;;;;;;50.42;21.50;;;1.90;99.90;;;;;;5130319;27;20131;-48
2023/03/02 04:21:42;;;;;;;55.58;22.83;;;1.90;99.90;;;;;;5129096;27;20031;-51
2023/03/02 04:24:08;;;;;;;54.00;23.10;;;1.90;99.90;;;;;;5129911;27;20072;-47
2023/03/02 04:26:35;;;;;;;52.78;21.70;;;1.90;99.90;;;;;;5099243;27;20047;-49
2023/03/02 04:29:01;;;;;;;52.70;22.45;;;1.90;99.90;;;;;;5131647;27;20027;-47
2023/03/02 04:31:27;;;;;;;54.50;22.92;;;2.00;99.90;;;;;;5130729;27;20474;-46
2023/03/02 04:33:53;;;;;;;52.97;22.52;;;2.00;99.90;;;;;;5128921;27;20037;-46
2023/03/02 04:36:19;;;;;;;54.17;23.35;;;2.00;99.90;;;;;;5127259;27;20038;-47
2023/03/02 04:38:46;;;;;;;55.28;24.42;;;1.90;99.90;;;;;;5125914;27;20118;-47
2023/03/02 04:41:11;;;;;;;54.92;23.05;;;1.90;99.90;;;;;;5118564;27;20525;-49
2023/03/02 04:43:37;;;;;;;53.10;22.38;;;2.00;99.90;;;;;;5118434;27;20058;-47
2023/03/02 04:46:03;;;;;;;54.40;21.90;;;2.00;99.90;;;;;;5100925;28;20459;-50
2023/03/02 04:48:29;;;;;;;51.63;22.52;;;1.90;99.90;;;;;;5129584;28;20027;-48
2023/03/02 04:50:54;;;;;;;46.92;20.40;;;1.90;99.90;;;;;;5130864;28;20039;-48
2023/03/02 04:53:20;;;;;;;42.55;19.40;;;1.90;99.90;;;;;;5128497;28;20485;-50
2023/03/02 04:55:46;;;;;;;38.47;18.38;;;1.90;99.90;;;;;;5130253;28;20073;-49
2023/03/02 04:58:12;;;;;;;49.10;20.30;;;1.90;99.90;;;;;;5128485;28;20050;-49
2023/03/02 05:00:38;;;;;;;40.95;18.48;;;1.80;99.90;;;;;;5129912;28;20115;-48
2023/03/02 05:03:04;;;;;;;41.63;18.23;;;1.70;99.90;;;;;;5131502;28;20047;-50
2023/03/02 05:05:31;;;;;;;38.85;18.05;;;1.80;99.90;;;;;;5130320;28;20104;-45
2023/03/02 05:07:57;;;;;;;42.58;18.60;;;1.80;99.90;;;;;;5129640;28;20134;-48
2023/03/02 05:10:25;;;;;;;41.30;18.60;;;1.70;99.90;;;;;;5126315;28;20084;-50
2023/03/02 05:13:01;;;;;;;42.72;18.00;;;1.80;99.90;;;;;;5129230;28;20042;-48
2023/03/02 05:15:33;;;;;;;40.65;17.90;;;1.80;99.90;;;;;;5130048;28;20035;-52
2023/03/02 05:18:00;;;;;;;40.75;19.25;;;1.70;99.90;;;;;;5127947;28;20070;-47
2023/03/02 05:20:26;;;;;;;38.30;17.73;;;1.60;99.90;;;;;;5129777;28;20394;-49
2023/03/02 05:23:01;;;;;;;41.95;18.23;;;1.70;99.90;;;;;;5097347;27;20051;-49
2023/03/02 05:25:29;;;;;;;42.38;18.77;;;1.60;99.90;;;;;;5133465;27;20039;-48
2023/03/02 05:27:55;;;;;;;42.15;17.73;;;1.60;99.90;;;;;;5133148;27;20042;-51
2023/03/02 05:30:22;;;;;;;40.88;18.45;;;1.60;99.90;;;;;;5127639;27;20084;-49
2023/03/02 05:32:48;;;;;;;40.50;17.98;;;1.60;99.90;;;;;;5129408;27;20141;-48
2023/03/02 05:35:15;;;;;;;44.15;18.90;;;1.60;99.90;;;;;;5133982;27;20197;-49
2023/03/02 05:37:43;;;;;;;46.67;19.70;;;1.70;99.90;;;;;;5132045;27;20072;-47
2023/03/02 05:40:13;;;;;;;46.10;19.60;;;1.60;99.90;;;;;;5132545;27;20043;-49
2023/03/02 05:42:40;;;;;;;43.15;18.33;;;1.70;99.90;;;;;;5132964;27;20443;-48
2023/03/02 05:45:08;;;;;;;40.30;18.00;;;1.60;99.90;;;;;;5126968;27;20031;-50
2023/03/02 05:47:34;;;;;;;44.92;18.38;;;1.60;99.90;;;;;;5132136;27;20474;-48
2023/03/02 05:50:00;;;;;;;42.85;18.63;;;1.70;99.90;;;;;;5133771;27;20031;-48
2023/03/02 05:52:25;;;;;;;48.28;20.70;;;1.70;99.90;;;;;;5092932;28;20038;-49
2023/03/02 05:54:51;;;;;;;44.55;19.92;;;1.60;99.90;;;;;;5117170;27;20047;-47
2023/03/02 05:57:17;;;;;;;43.95;18.70;;;1.60;99.90;;;;;;5114191;27;20497;-48
2023/03/02 05:59:45;;;;;;;43.72;19.15;;;1.60;99.90;;;;;;5100162;28;20097;-49
2023/03/02 06:02:11;;;;;;;45.20;19.38;;;1.60;99.90;;;;;;5131056;27;20043;-50
2023/03/02 06:04:41;;;;;;;41.75;17.77;;;1.50;99.90;;;;;;5132245;27;20039;-47
2023/03/02 06:07:11;;;;;;;45.53;18.88;;;1.50;99.90;;;;;;5087944;28;20078;-47
2023/03/02 06:09:40;;;;;;;52.13;20.30;;;1.50;99.90;;;;;;5078019;28;20098;-49
2023/03/02 06:12:07;;;;;;;48.25;20.55;;;1.60;99.90;;;;;;5072336;28;20043;-49
2023/03/02 06:14:34;;;;;;;49.17;18.67;;;1.70;99.90;;;;;;5078916;28;20123;-49
2023/03/02 06:17:00;;;;;;;49.75;20.10;;;1.60;99.90;;;;;;5072410;28;20048;-47
2023/03/02 06:19:26;;;;;;;47.80;20.40;;;1.60;99.90;;;;;;5072174;28;20474;-48
2023/03/02 06:21:51;;;;;;;51.33;21.15;;;1.70;99.90;;;;;;5072550;28;20090;-47
2023/03/02 06:24:17;;;;;;;57.58;22.38;;;1.60;99.90;;;;;;5072006;28;20044;-50
2023/03/02 06:26:43;;;;;;;50.28;19.83;;;1.70;99.90;;;;;;5072333;28;20036;-47
2023/03/02 06:29:09;;;;;;;54.22;21.50;;;1.70;99.90;;;;;;5072079;28;20040;-49
2023/03/02 06:31:34;;;;;;;51.33;19.90;;;1.60;99.90;;;;;;5071852;28;20032;-50
2023/03/02 06:34:00;;;;;;;45.72;18.95;;;2.20;99.90;;;;;;5071210;28;20040;-48
2023/03/02 06:36:27;;;;;;;46.42;18.70;;;1.50;99.90;;;;;;5070606;28;20037;-50
2023/03/02 06:38:53;;;;;;;44.10;18.25;;;1.60;99.90;;;;;;5072042;28;20044;-50
2023/03/02 06:41:19;;;;;;;44.28;18.33;;;1.50;99.90;;;;;;5072316;28;20045;-48
2023/03/02 06:43:45;;;;;;;49.28;18.95;;;1.50;99.90;;;;;;5071689;28;20043;-49
2023/03/02 06:46:11;;;;;;;43.97;17.67;;;1.40;99.90;;;;;;5071504;28;20048;-50
2023/03/02 06:48:37;;;;;;;43.17;17.95;;;1.70;99.90;;;;;;5079444;28;20040;-52
2023/03/02 06:51:02;;;;;;;51.42;19.60;;;1.40;99.90;;;;;;5071777;28;20063;-51
2023/03/02 06:53:28;;;;;;;45.33;16.98;;;1.50;99.90;;;;;;5071394;28;20129;-50
2023/03/02 06:55:54;;;;;;;46.20;18.23;;;1.50;99.90;;;;;;5067881;28;20411;-49
2023/03/02 06:58:20;;;;;;;47.22;18.17;;;1.80;99.90;;;;;;5076509;28;20056;-47
2023/03/02 07:00:45;;;;;;;46.67;17.88;;;1.50;99.90;;;;;;5071714;28;20053;-50
2023/03/02 07:03:11;;;;;;;46.20;18.85;;;1.60;99.90;;;;;;5073535;28;20399;-50
2023/03/02 07:05:37;;;;;;;50.75;18.75;;;1.60;99.90;;;;;;5079793;27;20098;-47
2023/03/02 07:08:03;;;;;;;53.53;20.42;;;1.60;99.90;;;;;;5121238;27;20039;-49
2023/03/02 07:10:29;;;;;;;47.67;20.23;;;1.70;99.90;;;;;;5131056;27;20070;-49
2023/03/02 07:12:55;;;;;;;63.85;21.05;;;2.00;99.90;;;;;;5130459;27;20067;-49
2023/03/02 07:15:21;;;;;;;50.15;20.23;;;1.70;99.90;;;;;;5102579;28;20043;-47
2023/03/02 07:17:47;;;;;;;52.65;20.75;;;1.60;99.90;;;;;;5132862;27;20035;-49
2023/03/02 07:20:16;;;;;;;51.72;19.35;;;1.60;99.90;;;;;;5132669;27;20073;-49
2023/03/02 07:22:42;;;;;;;53.10;20.20;;;1.60;99.90;;;;;;5130799;27;20046;-47
2023/03/02 07:25:09;;;;;;;55.33;19.58;;;1.50;99.90;;;;;;5131285;27;20043;-51
2023/03/02 07:27:35;;;;;;;58.80;21.23;;;1.50;99.90;;;;;;5130728;27;20035;-49
2023/03/02 07:30:02;;;;;;;55.90;19.83;;;1.60;99.90;;;;;;5121953;27;20071;-48
2023/03/02 07:32:27;;;;;;;57.40;19.98;;;1.40;99.90;;;;;;5120593;27;20053;-49
2023/03/02 07:34:53;;;;;;;50.10;19.33;;;1.40;99.90;;;;;;5130801;27;20039;-47
2023/03/02 07:37:19;;;;;;;59.38;20.63;;;1.40;99.90;;;;;;5128229;27;20043;-46
2023/03/02 07:39:47;;;;;;;55.85;19.52;;;1.40;99.90;;;;;;5130453;27;20031;-46
2023/03/02 07:42:13;;;;;;;52.22;19.23;;;1.40;99.90;;;;;;5131623;27;20339;-46
2023/03/02 07:44:39;;;;;;;55.17;20.02;;;1.60;99.90;;;;;;5126615;27;20139;-47
2023/03/02 07:47:05;;;;;;;56.95;21.08;;;1.50;99.90;;;;;;5120749;27;20039;-47
2023/03/02 07:49:30;;;;;;;54.75;19.70;;;1.60;99.90;;;;;;5128600;27;20029;-46
2023/03/02 07:51:56;;;;;;;55.33;20.17;;;1.60;99.90;;;;;;5125385;27;20036;-47
2023/03/02 07:54:25;;;;;;;61.78;20.80;;;1.60;99.90;;;;;;5124313;27;20035;-47
2023/03/02 07:56:50;;;;;;;60.33;20.55;;;1.70;99.90;;;;;;5125932;27;20402;-47
2023/03/02 07:59:16;;;;;;;61.35;21.50;;;1.60;99.90;;;;;;5095916;27;20039;-50
2023/03/02 08:01:42;;;;;;;55.70;19.92;;;2.10;99.90;;;;;;5125890;27;20084;-49
2023/03/02 08:04:08;;;;;;;60.70;20.70;;;1.60;99.90;;;;;;5123943;27;20036;-49
2023/03/02 08:06:34;;;;;;;58.28;21.00;;;1.60;99.90;;;;;;5124898;27;20056;-47
2023/03/02 08:09:02;;;;;;;56.45;20.42;;;1.60;99.90;;;;;;5091637;27;20036;-49
2023/03/02 08:11:28;;;;;;;54.72;20.45;;;1.60;99.90;;;;;;5121969;27;20054;-50
2023/03/02 08:13:54;;;;;;;54.95;20.35;;;1.60;99.90;;;;;;5127139;27;20086;-48
2023/03/02 08:16:20;;;;;;;51.38;20.08;;;1.70;99.90;;;;;;5091976;27;20035;-48
2023/03/02 08:18:46;;;;;;;49.05;18.77;;;1.60;99.90;;;;;;5090296;28;20439;-49
2023/03/02 08:21:18;;;;;;;54.30;19.75;;;1.80;99.90;;;;;;5123673;27;20358;-49
2023/03/02 08:23:45;;;;;;;54.13;19.27;;;1.70;99.90;;;;;;5124619;27;20074;-50
2023/03/02 08:26:11;;;;;;;55.45;20.17;;;1.90;99.90;;;;;;5085843;28;20078;-51
2023/03/02 08:28:37;;;;;;;58.17;21.25;;;1.80;99.90;;;;;;5104250;27;20050;-49
2023/03/02 08:31:04;;;;;;;54.80;21.45;;;1.90;99.90;;;;;;5104295;27;20122;-50
2023/03/02 08:33:29;;;;;;;57.75;19.77;;;2.00;99.90;;;;;;5103987;27;20019;-49
2023/03/02 08:36:04;;;;;;;57.88;20.45;;;1.90;99.90;;;;;;5104453;27;20542;-49
2023/03/02 08:38:31;;;;;;;57.60;20.88;;;1.90;99.90;;;;;;5102555;27;20047;-51
2023/03/02 08:40:57;;;;;;;54.88;20.88;;;1.90;99.90;;;;;;5101041;27;20038;-48
2023/03/02 08:43:25;;;;;;;54.78;21.00;;;2.20;99.90;;;;;;5100964;27;20036;-50
2023/03/02 08:45:52;;;;;;;52.00;19.15;;;2.30;99.90;;;;;;5103271;28;20490;-48
2023/03/02 08:48:19;;;;;;;55.15;20.25;;;1.90;99.90;;;;;;5081609;28;20031;-51
2023/03/02 08:50:52;;;;;;;52.42;19.30;;;2.40;99.90;;;;;;5050061;28;20448;-47
2023/03/02 08:53:18;;;;;;;52.67;19.60;;;2.40;99.90;;;;;;5101050;28;20070;-48
2023/03/02 08:55:44;;;;;;;55.78;20.92;;;2.00;99.90;;;;;;5102087;28;20059;-50
2023/03/02 08:58:09;;;;;;;53.63;21.50;;;2.00;99.90;;;;;;5103625;27;20149;-49
2023/03/02 09:00:35;;;;;;;52.65;19.23;;;2.00;99.90;;;;;;5106538;27;20891;-50
2023/03/02 09:03:01;;;;;;;58.88;21.52;;;2.00;99.90;;;;;;5108523;27;20493;-50
2023/03/02 09:05:26;;;;;;;56.65;20.40;;;2.00;99.90;;;;;;5109237;27;20167;-51
2023/03/02 09:07:52;;;;;;;56.00;21.25;;;2.10;99.90;;;;;;5107374;27;20051;-51
2023/03/02 09:10:18;;;;;;;54.35;21.08;;;2.10;99.90;;;;;;5108904;27;20036;-46
2023/03/02 09:12:44;;;;;;;55.65;21.25;;;2.20;99.90;;;;;;5110140;27;20039;-52
2023/03/02 09:15:09;;;;;;;52.47;20.38;;;2.20;99.90;;;;;;5105749;27;20039;-49
2023/03/02 09:17:35;;;;;;;53.17;19.77;;;2.10;99.90;;;;;;5105269;27;20485;-50
2023/03/02 09:20:01;;;;;;;54.50;20.27;;;2.20;99.90;;;;;;5109353;27;20108;-51
2023/03/02 09:22:27;;;;;;;53.67;21.67;;;2.30;99.90;;;;;;5107614;27;20031;-50
2023/03/02 09:24:53;;;;;;;59.15;22.63;;;2.40;99.90;;;;;;5107443;27;20133;-50
2023/03/02 09:27:19;;;;;;;54.45;20.58;;;3.60;99.90;;;;;;5087976;27;20247;-50
2023/03/02 09:29:44;;;;;;;56.42;22.25;;;2.30;99.90;;;;;;5110574;27;20031;-52
2023/03/02 09:32:12;;;;;;;53.88;21.08;;;2.40;99.90;;;;;;5110499;27;20114;-48
2023/03/02 09:34:37;;;;;;;56.45;22.30;;;2.50;99.90;;;;;;5110510;27;20043;-53
2023/03/02 09:37:03;;;;;;;54.53;21.17;;;2.60;99.90;;;;;;5108025;27;20042;-51
2023/03/02 09:39:29;;;;;;;58.42;22.10;;;2.50;99.90;;;;;;5107133;27;20030;-49
2023/03/02 09:42:20;;;;;;;55.08;21.92;;;2.50;99.90;;;;;;5107230;27;20049;-49
2023/03/02 09:44:57;;;;;;;45.00;19.48;;;2.60;99.90;;;;;;5103878;27;20442;-48
2023/03/02 09:47:41;;;;;;;48.90;20.10;;;2.80;99.90;;;;;;5106655;27;20526;-50
2023/03/02 09:50:26;;;;;;;46.53;19.77;;;2.80;99.90;;;;;;5101238;27;20042;-50
2023/03/02 09:53:01;;;;;;;48.97;19.98;;;2.90;99.90;;;;;;5105957;27;20031;-49
2023/03/02 09:55:32;;;;;;;46.80;20.73;;;2.90;99.90;;;;;;5102832;27;20038;-53
2023/03/02 09:58:01;;;;;;;43.17;19.30;;;3.10;99.90;;;;;;5107270;27;20036;-50
2023/03/02 10:00:35;;;;;;;40.45;19.38;;;3.10;99.90;;;;;;5086090;27;20367;-46
2023/03/02 10:03:05;;;;;;;36.25;17.40;;;3.00;99.90;;;;;;5104419;27;20031;-51
2023/03/02 10:05:44;;;;;;;36.42;18.00;;;3.00;99.90;;;;;;5103263;27;20058;-49
2023/03/02 10:08:14;;;;;;;37.95;18.08;;;3.10;99.90;;;;;;5100490;27;20040;-47
2023/03/02 10:10:52;;;;;;;37.47;17.05;;;3.30;99.90;;;;;;5099482;27;20109;-49
2023/03/02 10:13:31;;;;;;;36.30;18.05;;;3.30;99.90;;;;;;5107397;27;20032;-52
2023/03/02 10:15:57;;;;;;;36.85;17.92;;;3.40;99.90;;;;;;5108644;27;20031;-48
2023/03/02 10:18:25;;;;;;;34.42;17.17;;;3.40;99.90;;;;;;5091727;27;20040;-50
2023/03/02 10:21:20;;;;;;;34.60;17.55;;;3.40;99.90;;;;;;5103103;27;20734;-48
2023/03/02 10:24:15;;;;;;;33.70;17.00;;;3.40;99.90;;;;;;5104676;27;20047;-51
2023/03/02 10:26:47;;;;;;;34.63;17.80;;;3.50;99.90;;;;;;5103805;27;20147;-51
2023/03/02 10:29:21;;;;;;;35.00;17.67;;;3.50;99.90;;;;;;5103650;27;20074;-50
2023/03/02 10:31:52;;;;;;;37.53;17.63;;;3.60;99.90;;;;;;5107388;27;20396;-50
2023/03/02 10:34:18;;;;;;;37.92;16.92;;;3.50;99.90;;;;;;5086054;28;20044;-51
2023/03/02 10:36:46;;;;;;;37.78;19.20;;;3.50;99.90;;;;;;5108786;27;20036;-48
2023/03/02 10:39:16;;;;;;;37.35;16.80;;;3.50;99.90;;;;;;5106633;27;20419;-48
2023/03/02 10:41:44;;;;;;;36.72;17.60;;;3.70;99.90;;;;;;5102451;27;20032;-52
2023/03/02 10:44:40;;;;;;;34.25;18.00;;;3.60;99.90;;;;;;5104859;27;20055;-49
2023/03/02 10:47:17;;;;;;;35.40;17.77;;;3.80;99.90;;;;;;5077047;27;20435;-50
2023/03/02 10:49:46;;;;;;;33.13;17.25;;;4.00;99.90;;;;;;5101986;27;20084;-51
2023/03/02 10:52:15;;;;;;;31.30;17.40;;;4.20;99.90;;;;;;5102012;27;20034;-47
2023/03/02 10:54:41;;;;;;;32.72;17.98;;;4.40;99.90;;;;;;5101764;27;20034;-49
2023/03/02 10:57:31;;;;;;;36.35;18.77;;;4.50;99.90;;;;;;5100979;27;20036;-51
2023/03/02 11:00:12;;;;;;;34.33;18.15;;;4.60;99.90;;;;;;5088475;28;20070;-50
2023/03/02 11:02:48;;;;;;;30.00;16.73;;;4.80;99.90;;;;;;5101382;27;20040;-49
2023/03/02 11:05:28;;;;;;;31.73;18.65;;;5.00;99.90;;;;;;5102630;27;20052;-51
2023/03/02 11:07:55;;;;;;;31.40;19.08;;;5.30;99.90;;;;;;5099872;27;20043;-50
2023/03/02 11:10:24;;;;;;;30.30;18.85;;;5.60;99.90;;;;;;5096023;27;20166;-53
2023/03/02 11:12:51;;;;;;;28.75;18.40;;;5.60;99.90;;;;;;5100439;27;20028;-51
2023/03/02 11:15:21;;;;;;;29.17;18.25;;;5.90;99.90;;;;;;5096412;27;20059;-46
2023/03/02 11:17:54;;;;;;;32.25;17.85;;;5.60;99.90;;;;;;5096961;27;20627;-48
2023/03/02 11:20:24;;;;;;;31.75;19.70;;;5.60;99.90;;;;;;5100051;27;20047;-50
2023/03/02 11:23:06;;;;;;;26.75;17.48;;;5.70;99.90;;;;;;5102929;27;20542;-50
2023/03/02 11:25:44;;;;;;;29.15;18.02;;;5.90;99.90;;;;;;5103491;27;20046;-50
2023/03/02 11:28:21;;;;;;;26.42;17.48;;;6.00;99.90;;;;;;5106459;27;20027;-49
2023/03/02 11:30:50;;;;;;;29.50;18.38;;;6.40;99.90;;;;;;5106113;27;20036;-51
2023/03/02 11:33:40;;;;;;;30.70;18.50;;;6.00;99.90;;;;;;5106112;27;20028;-50
2023/03/02 11:36:22;;;;;;;29.90;18.00;;;6.10;99.90;;;;;;5105508;27;20402;-50
2023/03/02 11:38:54;;;;;;;28.55;18.42;;;6.20;99.90;;;;;;5104214;27;20082;-50
2023/03/02 11:41:31;;;;;;;28.13;18.00;;;6.40;99.90;;;;;;5099332;27;20058;-50
2023/03/02 11:44:00;;;;;;;28.13;18.67;;;6.60;99.90;;;;;;5115542;27;20036;-49
2023/03/02 11:46:32;;;;;;;27.55;18.58;;;6.80;99.90;;;;;;5100624;27;20110;-51
2023/03/02 11:49:06;;;;;;;26.83;17.65;;;7.00;99.90;;;;;;5100485;27;20027;-50
2023/03/02 11:51:37;;;;;;;26.88;16.33;;;7.10;99.90;;;;;;5103124;27;20077;-47
2023/03/02 11:54:17;;;;;;;23.83;15.07;;;7.10;99.90;;;;;;5096709;27;20382;-49
2023/03/02 11:56:43;;;;;;;23.00;15.75;;;7.20;99.90;;;;;;5096931;27;20028;-50
2023/03/02 11:59:18;;;;;;;24.17;15.65;;;7.70;99.90;;;;;;5100969;27;20077;-52
2023/03/02 12:01:50;;;;;;;24.48;16.42;;;8.00;99.90;;;;;;5101278;27;20356;-49
2023/03/02 12:04:33;;;;;;;24.75;17.02;;;8.00;99.90;;;;;;5099107;27;20044;-50
2023/03/02 12:07:01;;;;;;;20.33;13.95;;;8.20;99.90;;;;;;5100343;27;20054;-48
2023/03/02 12:09:32;;;;;;;22.73;16.05;;;8.40;99.90;;;;;;5111523;27;20062;-48
2023/03/02 12:12:15;;;;;;;22.45;16.30;;;8.60;99.90;;;;;;5128145;27;20180;-52
2023/03/02 12:14:42;;;;;;;21.75;17.33;;;8.60;99.90;;;;;;5095448;27;20732;-48
2023/03/02 12:17:26;;;;;;;22.90;17.15;;;8.80;99.90;;;;;;5128222;27;20039;-52
2023/03/02 12:20:07;;;;;;;21.55;16.98;;;9.00;99.90;;;;;;5090527;28;20047;-51
2023/03/02 12:22:34;;;;;;;23.02;16.55;;;9.10;99.90;;;;;;5119544;27;20113;-50
2023/03/02 12:25:25;;;;;;;22.10;16.65;;;9.10;99.90;;;;;;5114616;27;20119;-49
2023/03/02 12:27:53;;;;;;;22.52;16.83;;;9.30;99.90;;;;;;5094357;27;20126;-51
2023/03/02 12:30:26;;;;;;;20.65;15.50;;;9.50;99.90;;;;;;5096663;28;20049;-48
2023/03/02 12:33:03;;;;;;;20.52;16.20;;;9.60;99.90;;;;;;5129556;27;20038;-47
2023/03/02 12:35:32;;;;;;;19.10;15.25;;;9.70;99.90;;;;;;5128747;27;20386;-51
2023/03/02 12:38:16;;;;;;;20.45;16.33;;;9.90;99.90;;;;;;5129941;27;20075;-48
2023/03/02 12:41:03;;;;;;;21.88;16.83;;;10.00;99.90;;;;;;5129150;27;20035;-52
2023/03/02 12:43:34;;;;;;;22.67;16.77;;;10.00;99.90;;;;;;5130115;27;20042;-49
2023/03/02 12:46:18;;;;;;;19.95;16.08;;;9.90;99.90;;;;;;5104797;27;20071;-49